Time;durP1;ratioP1;P1;durP2;ratioP2;P2;SDS_P1;SDS_P2;PMS_P1;PMS_P2;Temp;Humidity;BMP_temperature;BMP_pressure;BME280_temperature;BME280_humidity;BME280_pressure;Samples;Min_cycle;Max_cycle;Signal;HPM_P1;HPM_P2
2021/01/30 12:29:06;;;;;;;4.47;1.73;;;;;;;14.00;59.94;98827.31;5072909;28;20368;-61
2021/01/30 12:31:32;;;;;;;5.28;1.38;;;;;;;13.62;60.62;98833.84;5073172;28;20033;-61
2021/01/30 12:33:57;;;;;;;7.70;1.70;;;;;;;13.27;61.40;98820.44;5072991;28;20512;-60
2021/01/30 12:36:23;;;;;;;7.22;1.67;;;;;;;13.19;62.13;98835.78;5072405;28;20021;-61
2021/01/30 12:38:48;;;;;;;6.30;1.52;;;;;;;13.06;62.68;98823.97;5072983;28;20070;-61
2021/01/30 12:41:14;;;;;;;6.22;1.33;;;;;;;12.97;62.55;98804.13;5072830;28;20028;-60
2021/01/30 12:43:39;;;;;;;5.97;1.63;;;;;;;12.89;62.12;98807.72;5072295;28;20020;-60
2021/01/30 12:46:05;;;;;;;6.55;1.67;;;;;;;12.88;62.63;98795.16;5072375;28;20059;-60
2021/01/30 12:48:30;;;;;;;5.20;1.33;;;;;;;12.89;62.53;98785.84;5072332;28;20076;-61
2021/01/30 12:50:57;;;;;;;5.15;1.30;;;;;;;12.93;62.33;98775.81;5072856;28;20029;-62
2021/01/30 12:53:23;;;;;;;6.30;1.58;;;;;;;12.94;62.19;98771.94;5071448;28;20247;-60
2021/01/30 12:55:49;;;;;;;8.75;2.35;;;;;;;12.80;62.40;98752.28;5071622;28;20044;-61
2021/01/30 12:58:17;;;;;;;6.70;1.75;;;;;;;12.89;62.53;98766.69;5072582;28;20493;-60
2021/01/30 13:00:42;;;;;;;6.38;1.75;;;;;;;12.82;62.60;98769.13;5072986;28;20048;-60
2021/01/30 13:03:08;;;;;;;7.78;1.80;;;;;;;12.84;62.71;98764.13;5072758;28;20520;-62
2021/01/30 13:05:33;;;;;;;8.02;2.13;;;;;;;12.81;62.49;98748.41;5072617;28;20108;-61
2021/01/30 13:07:59;;;;;;;5.32;1.70;;;;;;;12.85;62.40;98754.78;5075283;28;20066;-60
2021/01/30 13:10:24;;;;;;;7.22;1.92;;;;;;;12.96;62.46;98744.25;5073039;28;20029;-60
2021/01/30 13:12:50;;;;;;;6.75;1.77;;;;;;;13.02;62.45;98749.19;5072235;28;20020;-60
2021/01/30 13:15:15;;;;;;;9.95;1.88;;;;;;;13.07;61.96;98751.69;5072144;28;20046;-61
2021/01/30 13:17:41;;;;;;;5.57;1.58;;;;;;;13.08;61.62;98744.31;5071080;28;20044;-61
2021/01/30 13:20:08;;;;;;;5.63;1.67;;;;;;;13.08;61.94;98741.56;5071255;28;20475;-60
2021/01/30 13:22:34;;;;;;;10.15;2.22;;;;;;;13.10;61.50;98738.50;5068592;28;20156;-61
2021/01/30 13:25:01;;;;;;;6.18;1.70;;;;;;;13.00;62.24;98745.97;5062667;28;20056;-60
2021/01/30 13:27:26;;;;;;;7.65;1.92;;;;;;;12.95;62.12;98739.91;5070488;28;20502;-59
2021/01/30 13:29:51;;;;;;;11.23;1.60;;;;;;;12.82;61.74;98761.72;5070640;28;20029;-62
2021/01/30 13:32:17;;;;;;;8.27;2.13;;;;;;;12.67;61.93;98738.50;5069077;28;20039;-62
2021/01/30 13:34:42;;;;;;;8.40;2.28;;;;;;;12.54;62.65;98728.66;5071118;28;20027;-61
2021/01/30 13:37:08;;;;;;;5.22;1.90;;;;;;;12.54;62.76;98731.38;5071132;28;20075;-60
2021/01/30 13:39:33;;;;;;;7.28;2.10;;;;;;;12.50;63.28;98717.56;5060013;28;20053;-60
2021/01/30 13:41:59;;;;;;;10.13;1.88;;;;;;;12.52;62.73;98730.91;5051353;28;20053;-60
2021/01/30 13:44:25;;;;;;;8.65;1.95;;;;;;;12.26;64.85;98690.88;5057295;28;20025;-60
2021/01/30 13:46:51;;;;;;;10.20;2.30;;;;;;;12.44;65.10;98730.63;5051207;28;20049;-60
2021/01/30 13:49:16;;;;;;;3.45;1.30;;;;;;;12.27;65.90;98733.47;5063313;28;20092;-63
2021/01/30 13:51:41;;;;;;;11.70;1.77;;;;;;;11.98;72.69;98750.66;5058634;28;20021;-60
2021/01/30 13:54:07;;;;;;;9.65;1.80;;;;;;;11.34;76.61;98728.50;5057936;28;20029;-61
2021/01/30 13:56:32;;;;;;;12.55;2.20;;;;;;;10.91;77.63;98705.63;5056592;28;20051;-62
2021/01/30 13:58:58;;;;;;;8.00;1.70;;;;;;;10.74;77.75;98708.38;5057666;28;20013;-60
2021/01/30 14:01:26;;;;;;;7.57;1.52;;;;;;;10.68;77.48;98697.63;5058004;28;20021;-60
2021/01/30 14:03:51;;;;;;;7.22;1.80;;;;;;;10.67;76.69;98711.56;5058015;28;20103;-60
2021/01/30 14:06:16;;;;;;;5.90;1.38;;;;;;;10.57;76.66;98701.00;5058410;28;20098;-61
2021/01/30 14:08:42;;;;;;;6.85;1.63;;;;;;;10.72;76.80;98708.69;5057975;28;20028;-60
2021/01/30 14:11:07;;;;;;;9.75;2.42;;;;;;;10.78;76.45;98710.13;5065371;28;20051;-61
2021/01/30 14:13:33;;;;;;;8.35;2.30;;;;;;;10.68;76.12;98680.47;5058652;28;20035;-61
2021/01/30 14:15:58;;;;;;;11.35;1.90;;;;;;;10.84;75.86;98705.31;5057879;28;20028;-61
2021/01/30 14:18:23;;;;;;;11.02;1.92;;;;;;;10.93;75.91;98714.28;5040673;28;20028;-61
2021/01/30 14:20:49;;;;;;;8.32;2.28;;;;;;;11.01;76.04;98712.66;5058048;28;20099;-60
2021/01/30 14:23:15;;;;;;;9.27;2.47;;;;;;;11.10;75.67;98707.22;5054928;28;20037;-59
2021/01/30 14:25:40;;;;;;;10.48;2.70;;;;;;;11.21;75.03;98713.13;5057124;28;20513;-61
2021/01/30 14:28:06;;;;;;;7.25;2.00;;;;;;;11.27;74.81;98712.66;5057254;28;20043;-60
2021/01/30 14:30:31;;;;;;;13.15;2.45;;;;;;;11.33;74.33;98705.88;5057044;28;20053;-62
2021/01/30 14:32:58;;;;;;;9.05;2.15;;;;;;;11.42;74.03;98702.34;5056177;28;20067;-59
2021/01/30 14:35:26;;;;;;;9.07;2.38;;;;;;;11.47;72.91;98702.97;5052919;28;20027;-59
2021/01/30 14:37:51;;;;;;;8.45;2.22;;;;;;;11.44;72.40;98700.88;5048780;28;20056;-60
2021/01/30 14:40:33;;;;;;;7.75;2.10;;;;;;;11.45;70.25;98705.22;5056866;28;20060;-61
2021/01/30 14:42:59;;;;;;;9.38;2.25;;;;;;;11.42;69.04;98711.31;5056722;28;20489;-59
2021/01/30 14:45:24;;;;;;;10.63;2.10;;;;;;;11.40;68.00;98697.22;5057384;28;20052;-60
2021/01/30 14:47:50;;;;;;;7.90;1.30;;;;;;;11.40;67.72;98715.50;5057205;28;20053;-60
2021/01/30 14:50:15;;;;;;;6.28;1.48;;;;;;;11.39;67.99;98711.97;5058689;28;20083;-60
2021/01/30 14:52:41;;;;;;;7.03;1.83;;;;;;;11.42;68.15;98716.75;5056407;28;20204;-60
2021/01/30 14:55:07;;;;;;;8.50;1.98;;;;;;;11.42;68.07;98707.78;5057093;28;20028;-60
2021/01/30 14:57:33;;;;;;;8.05;2.10;;;;;;;11.41;68.59;98715.16;5057417;28;20017;-62
2021/01/30 14:59:59;;;;;;;8.85;2.10;;;;;;;11.32;68.24;98728.06;5056810;28;20163;-60
2021/01/30 15:02:24;;;;;;;8.18;1.55;;;;;;;10.76;66.41;98651.59;5056832;28;20401;-60
2021/01/30 15:04:54;;;;;;;10.27;2.33;;;;;;;11.12;68.34;98734.97;5056975;28;20021;-60
2021/01/30 15:07:20;;;;;;;7.80;1.60;;;;;;;10.86;71.33;98728.41;5056778;28;20112;-61
2021/01/30 15:09:46;;;;;;;5.32;1.75;;;;;;;10.56;73.33;98732.88;5057022;28;20029;-62
2021/01/30 15:12:11;;;;;;;7.28;1.60;;;;;;;10.43;72.95;98728.38;5057311;28;20082;-61
2021/01/30 15:14:36;;;;;;;10.63;2.20;;;;;;;10.26;72.79;98720.94;5056222;28;20036;-60
2021/01/30 15:17:02;;;;;;;5.10;1.40;;;;;;;10.20;73.08;98712.13;5062940;28;20025;-61
2021/01/30 15:19:27;;;;;;;7.10;1.98;;;;;;;10.16;73.54;98730.22;5056686;28;20028;-60
2021/01/30 15:21:55;;;;;;;11.07;1.92;;;;;;;10.23;73.42;98715.03;5057053;28;20035;-60
2021/01/30 15:24:21;;;;;;;6.60;1.73;;;;;;;10.30;73.53;98721.91;5056415;28;20171;-61
2021/01/30 15:26:46;;;;;;;5.90;1.60;;;;;;;10.36;73.53;98726.09;5056842;28;20112;-62
2021/01/30 15:29:11;;;;;;;5.32;1.70;;;;;;;10.42;73.39;98724.84;5056529;28;20025;-60
2021/01/30 15:31:37;;;;;;;6.93;1.83;;;;;;;10.53;73.30;98725.38;5056617;28;20025;-60
2021/01/30 15:34:03;;;;;;;7.70;2.50;;;;;;;10.61;72.69;98730.03;5055713;28;20036;-61
2021/01/30 15:36:29;;;;;;;7.25;2.33;;;;;;;10.68;72.57;98729.53;5055972;28;20025;-60
2021/01/30 15:38:54;;;;;;;6.85;1.90;;;;;;;10.72;72.27;98725.03;5055927;28;20029;-60
2021/01/30 15:41:20;;;;;;;10.85;2.17;;;;;;;10.80;72.51;98726.16;5056548;28;20067;-60
2021/01/30 15:43:45;;;;;;;6.03;1.88;;;;;;;10.84;71.96;98722.47;5047890;28;20374;-61
2021/01/30 15:46:11;;;;;;;11.68;3.22;;;;;;;10.95;71.13;98727.59;5056137;28;20025;-61
2021/01/30 15:48:36;;;;;;;5.60;1.80;;;;;;;10.96;70.66;98715.56;5055977;28;20025;-60
2021/01/30 15:51:01;;;;;;;7.70;2.65;;;;;;;10.95;70.36;98717.47;5055717;28;20115;-62
2021/01/30 15:53:27;;;;;;;9.10;2.45;;;;;;;10.97;70.32;98717.19;5061757;28;20036;-60
2021/01/30 15:55:53;;;;;;;7.30;2.17;;;;;;;10.95;70.02;98717.47;5056195;28;20162;-61
2021/01/30 15:58:19;;;;;;;10.65;2.05;;;;;;;10.95;69.62;98727.59;5055638;28;20028;-60
2021/01/30 16:00:44;;;;;;;9.10;2.58;;;;;;;10.95;69.49;98714.75;5056106;28;20481;-60
2021/01/30 16:03:10;;;;;;;9.10;2.60;;;;;;;10.93;69.18;98711.56;5055335;28;20029;-60
2021/01/30 16:05:36;;;;;;;10.25;2.50;;;;;;;10.92;68.80;98711.88;5056301;28;20056;-61
2021/01/30 16:08:01;;;;;;;12.02;2.75;;;;;;;10.89;69.24;98704.34;5066807;28;20025;-61
2021/01/30 16:10:27;;;;;;;13.02;2.70;;;;;;;10.82;69.23;98697.47;5056081;28;20040;-62
2021/01/30 16:12:52;;;;;;;9.45;2.58;;;;;;;10.86;68.88;98689.44;5055147;28;20051;-60
2021/01/30 16:15:20;;;;;;;13.50;2.80;;;;;;;10.86;68.84;98701.16;5053684;28;20024;-62
2021/01/30 16:17:46;;;;;;;10.35;3.30;;;;;;;10.90;68.86;98695.06;5055380;28;20036;-61
2021/01/30 16:20:13;;;;;;;12.05;3.20;;;;;;;10.83;68.20;98690.88;5055586;28;20116;-59
2021/01/30 16:22:38;;;;;;;9.80;2.53;;;;;;;10.94;68.00;98693.28;5055100;28;20029;-59
2021/01/30 16:25:06;;;;;;;10.07;2.38;;;;;;;10.93;67.70;98692.47;5054915;28;20097;-60
2021/01/30 16:27:31;;;;;;;10.15;3.00;;;;;;;10.88;67.97;98694.56;5055017;28;20041;-62
2021/01/30 16:29:56;;;;;;;8.55;2.50;;;;;;;10.84;67.75;98692.47;5053829;28;20024;-60
2021/01/30 16:32:22;;;;;;;8.27;2.67;;;;;;;10.78;68.35;98688.31;5050603;28;20024;-60
2021/01/30 16:34:47;;;;;;;11.52;3.65;;;;;;;10.74;68.11;98695.56;5054683;28;20635;-61
2021/01/30 16:37:14;;;;;;;14.27;2.90;;;;;;;10.57;67.91;98660.13;5054976;28;20150;-60
2021/01/30 16:39:43;;;;;;;10.50;2.88;;;;;;;10.70;68.28;98691.84;5055266;28;20070;-60
2021/01/30 16:42:08;;;;;;;11.57;2.65;;;;;;;10.68;68.12;98700.34;5055220;28;20033;-60
2021/01/30 16:44:34;;;;;;;13.27;2.90;;;;;;;10.68;67.90;98724.06;5055072;28;20116;-60
2021/01/30 16:46:59;;;;;;;11.65;2.88;;;;;;;10.70;68.43;98702.75;5053483;28;20033;-60
2021/01/30 16:49:25;;;;;;;15.73;2.63;;;;;;;10.69;70.34;98709.31;5055428;28;20025;-61
2021/01/30 16:51:50;;;;;;;9.60;3.15;;;;;;;10.55;70.73;98701.28;5055599;28;20079;-61
2021/01/30 16:54:15;;;;;;;13.75;2.92;;;;;;;10.48;70.88;98700.97;5055403;28;20021;-62
2021/01/30 16:56:41;;;;;;;13.05;2.40;;;;;;;10.39;71.10;98711.88;5055113;28;20024;-60
2021/01/30 16:59:06;;;;;;;16.20;3.40;;;;;;;10.31;71.18;98712.63;5047757;28;20025;-60
2021/01/30 17:01:32;;;;;;;15.07;3.42;;;;;;;10.27;70.84;98708.94;5054093;28;20021;-61
2021/01/30 17:03:57;;;;;;;16.02;3.05;;;;;;;10.20;70.64;98710.19;5043499;28;20112;-60
2021/01/30 17:06:24;;;;;;;15.00;3.38;;;;;;;10.17;70.60;98713.56;5054797;28;20032;-60
2021/01/30 17:08:49;;;;;;;10.73;2.78;;;;;;;9.98;70.55;98683.88;5059661;28;20021;-61
2021/01/30 17:11:15;;;;;;;10.57;2.70;;;;;;;10.14;70.24;98716.94;5055150;28;20036;-59
2021/01/30 17:13:40;;;;;;;14.45;2.92;;;;;;;10.13;70.47;98719.94;5055119;28;20088;-61
2021/01/30 17:16:07;;;;;;;17.08;3.38;;;;;;;10.10;70.71;98729.56;5059114;28;20037;-60
2021/01/30 17:18:37;;;;;;;9.40;2.58;;;;;;;10.12;70.08;98730.06;5058980;28;20115;-62
2021/01/30 17:21:04;;;;;;;13.85;2.40;;;;;;;10.10;70.04;98724.09;5059538;28;20017;-61
2021/01/30 17:23:29;;;;;;;10.95;2.80;;;;;;;10.04;69.70;98722.66;5056113;28;20075;-60
2021/01/30 17:25:55;;;;;;;12.18;3.20;;;;;;;10.10;69.94;98732.28;5059148;28;20021;-60
2021/01/30 17:28:20;;;;;;;14.07;2.95;;;;;;;10.07;70.36;98724.75;5057660;28;20044;-61
2021/01/30 17:30:46;;;;;;;11.77;3.38;;;;;;;10.00;70.91;98738.81;5057334;28;20072;-60
2021/01/30 17:33:11;;;;;;;12.68;2.95;;;;;;;9.88;70.97;98723.09;5057870;28;20029;-60
2021/01/30 17:35:37;;;;;;;12.00;2.75;;;;;;;9.80;70.27;98740.19;5059046;28;20500;-60
2021/01/30 17:38:05;;;;;;;12.43;3.67;;;;;;;9.59;70.57;98705.34;5058547;28;20100;-62
2021/01/30 17:40:31;;;;;;;20.42;3.88;;;;;;;9.76;70.57;98729.13;5058678;28;20075;-62
2021/01/30 17:42:57;;;;;;;15.05;3.58;;;;;;;9.80;70.29;98731.22;5057595;28;20090;-60
2021/01/30 17:45:23;;;;;;;17.25;3.35;;;;;;;9.82;70.14;98727.09;5058099;28;20025;-59
2021/01/30 17:47:49;;;;;;;18.45;3.70;;;;;;;9.81;69.20;98730.91;5057374;28;20025;-60
2021/01/30 17:50:15;;;;;;;15.88;3.75;;;;;;;9.68;68.77;98707.31;5060221;28;20028;-60
2021/01/30 17:52:40;;;;;;;20.40;3.63;;;;;;;9.82;68.50;98728.97;5058416;28;20043;-60
2021/01/30 17:55:07;;;;;;;17.95;4.07;;;;;;;9.84;68.27;98727.53;5058303;28;20025;-60
2021/01/30 17:57:33;;;;;;;17.08;3.95;;;;;;;9.81;68.29;98714.59;5058182;28;20025;-62
2021/01/30 17:59:58;;;;;;;21.45;4.13;;;;;;;9.85;68.16;98721.00;5058089;28;20070;-59
2021/01/30 18:02:24;;;;;;;18.23;4.53;;;;;;;9.85;67.87;98728.38;5059827;28;20028;-61
2021/01/30 18:04:49;;;;;;;20.73;3.80;;;;;;;9.86;68.12;98730.75;5057875;28;20021;-60
2021/01/30 18:07:14;;;;;;;14.50;4.35;;;;;;;9.90;68.17;98723.59;5058460;28;20025;-61
2021/01/30 18:09:40;;;;;;;14.48;3.85;;;;;;;9.92;68.23;98726.78;5056691;28;20027;-60
2021/01/30 18:12:06;;;;;;;16.75;4.85;;;;;;;9.95;68.25;98735.44;5053294;28;20481;-60
2021/01/30 18:14:32;;;;;;;16.95;4.28;;;;;;;9.93;68.18;98733.03;5058152;28;20025;-62
2021/01/30 18:16:59;;;;;;;14.50;3.90;;;;;;;9.94;68.17;98734.66;5057453;28;20029;-60
2021/01/30 18:19:24;;;;;;;18.10;4.32;;;;;;;9.95;68.21;98741.72;5058241;28;20028;-60
2021/01/30 18:21:49;;;;;;;15.43;4.78;;;;;;;9.96;68.07;98750.66;5058150;28;20025;-60
2021/01/30 18:24:16;;;;;;;24.70;8.77;;;;;;;9.98;67.94;98743.00;5057540;28;20074;-57
2021/01/30 18:26:43;;;;;;;16.20;5.22;;;;;;;10.01;67.85;98751.31;5057570;28;20097;-60
2021/01/30 18:29:09;;;;;;;14.52;4.40;;;;;;;10.02;67.74;98741.22;5057592;28;20029;-60
2021/01/30 18:31:35;;;;;;;16.67;3.63;;;;;;;10.05;67.38;98748.78;5057068;28;20025;-60
2021/01/30 18:34:01;;;;;;;13.90;3.75;;;;;;;10.09;66.96;98752.47;5053771;28;20031;-62
2021/01/30 18:36:26;;;;;;;15.48;4.00;;;;;;;10.11;66.15;98752.16;5056303;28;20116;-61
2021/01/30 18:38:52;;;;;;;15.02;3.88;;;;;;;10.18;66.14;98766.13;5057585;28;20021;-60
2021/01/30 18:41:17;;;;;;;18.77;4.28;;;;;;;10.19;65.55;98763.06;5057967;28;20032;-61
2021/01/30 18:43:43;;;;;;;22.92;5.03;;;;;;;10.18;65.34;98747.06;5057381;28;20025;-60
2021/01/30 18:46:09;;;;;;;17.80;4.03;;;;;;;10.23;65.09;98757.78;5057048;28;20025;-60
2021/01/30 18:48:34;;;;;;;22.77;6.63;;;;;;;10.08;64.41;98738.06;5056675;28;20474;-61
2021/01/30 18:51:00;;;;;;;21.20;5.85;;;;;;;10.25;64.55;98755.56;5057496;28;20036;-59
2021/01/30 18:53:25;;;;;;;17.15;4.10;;;;;;;10.21;63.81;98760.84;5056956;28;20028;-61
2021/01/30 18:55:50;;;;;;;14.77;3.47;;;;;;;10.22;63.51;98761.63;5057713;28;20028;-61
2021/01/30 18:58:16;;;;;;;20.75;3.95;;;;;;;10.21;63.62;98757.31;5057115;28;20103;-63
2021/01/30 19:00:41;;;;;;;16.45;4.22;;;;;;;10.20;63.43;98759.22;5057340;28;20366;-60
2021/01/30 19:03:07;;;;;;;15.18;4.40;;;;;;;10.19;63.74;98767.72;5058680;28;20025;-60
2021/01/30 19:05:32;;;;;;;18.80;4.65;;;;;;;10.18;63.27;98772.34;5057450;28;20032;-64
2021/01/30 19:07:58;;;;;;;15.10;4.05;;;;;;;10.14;63.50;98767.84;5056762;28;20024;-60
2021/01/30 19:10:23;;;;;;;14.20;3.88;;;;;;;10.11;63.51;98750.22;5057198;28;20053;-60
2021/01/30 19:12:49;;;;;;;16.40;4.68;;;;;;;10.08;63.46;98765.28;5057292;28;20044;-61
2021/01/30 19:15:18;;;;;;;14.18;3.75;;;;;;;10.06;63.53;98758.56;5054545;28;20051;-60
2021/01/30 19:17:47;;;;;;;15.57;3.17;;;;;;;10.01;63.79;98751.31;5056416;28;20021;-61
2021/01/30 19:20:26;;;;;;;17.10;4.13;;;;;;;10.03;63.75;98751.00;5056820;28;20036;-61
2021/01/30 19:22:51;;;;;;;17.58;3.80;;;;;;;10.03;63.82;98745.56;5056018;28;20031;-58
2021/01/30 19:25:17;;;;;;;17.00;3.80;;;;;;;10.04;63.87;98752.63;5054838;28;20029;-61
2021/01/30 19:27:42;;;;;;;13.88;3.25;;;;;;;10.02;63.57;98746.66;5055908;28;20045;-60
2021/01/30 19:30:10;;;;;;;13.20;3.28;;;;;;;9.99;63.47;98747.31;5056786;28;20032;-61
2021/01/30 19:32:37;;;;;;;17.38;3.92;;;;;;;9.84;63.61;98722.09;5054428;28;20031;-60
2021/01/30 19:35:03;;;;;;;16.35;4.03;;;;;;;9.99;63.53;98741.88;5056056;28;20032;-62
2021/01/30 19:37:28;;;;;;;15.52;3.72;;;;;;;10.01;63.87;98747.78;5054288;28;20482;-59
2021/01/30 19:39:54;;;;;;;13.48;3.47;;;;;;;9.99;63.92;98742.66;5056263;28;20159;-60
2021/01/30 19:42:19;;;;;;;14.02;3.22;;;;;;;9.96;63.53;98740.56;5056523;28;20458;-61
2021/01/30 19:44:46;;;;;;;16.38;3.33;;;;;;;9.93;63.95;98739.28;5048207;28;20073;-60
2021/01/30 19:47:12;;;;;;;15.07;3.55;;;;;;;9.95;63.64;98740.88;5051122;28;20473;-60
2021/01/30 19:49:38;;;;;;;14.52;3.45;;;;;;;9.93;63.63;98741.22;5056514;28;20124;-60
2021/01/30 19:52:03;;;;;;;14.90;4.03;;;;;;;9.93;64.03;98744.72;5056404;28;20027;-61
2021/01/30 19:54:28;;;;;;;13.48;3.70;;;;;;;9.90;63.39;98739.91;5063834;28;20017;-61
2021/01/30 19:56:57;;;;;;;16.55;3.35;;;;;;;9.91;63.59;98749.69;5064608;28;20143;-62
2021/01/30 19:59:23;;;;;;;13.88;3.47;;;;;;;9.72;63.94;98708.31;5056399;28;20528;-60
2021/01/30 20:01:49;;;;;;;15.15;2.45;;;;;;;9.89;63.71;98735.59;5055253;28;20032;-60
2021/01/30 20:04:15;;;;;;;15.45;2.97;;;;;;;9.87;63.73;98748.72;5055712;28;20028;-61
2021/01/30 20:06:40;;;;;;;10.85;2.58;;;;;;;9.86;63.54;98754.47;5055578;28;20025;-61
2021/01/30 20:09:06;;;;;;;12.15;3.35;;;;;;;9.85;63.95;98744.69;5055846;28;20413;-60
2021/01/30 20:11:31;;;;;;;17.45;3.95;;;;;;;9.83;63.71;98745.03;5053333;28;20048;-63
2021/01/30 20:13:57;;;;;;;12.52;3.85;;;;;;;9.83;63.81;98742.31;5045173;28;20027;-60
2021/01/30 20:16:22;;;;;;;11.63;2.83;;;;;;;9.81;64.03;98736.34;5055696;28;20556;-62
2021/01/30 20:18:47;;;;;;;15.07;3.67;;;;;;;9.76;63.79;98720.97;5055919;28;20042;-62
2021/01/30 20:21:13;;;;;;;12.68;3.10;;;;;;;9.74;64.15;98741.47;5055873;28;20029;-61
2021/01/30 20:23:38;;;;;;;11.82;2.88;;;;;;;9.72;64.62;98739.03;5055684;28;20128;-59
2021/01/30 20:26:03;;;;;;;11.55;2.83;;;;;;;9.69;64.69;98745.13;5056236;28;20021;-61
2021/01/30 20:28:29;;;;;;;9.50;2.85;;;;;;;9.70;64.29;98746.72;5055551;28;20537;-60
2021/01/30 20:30:54;;;;;;;9.52;2.95;;;;;;;9.71;64.69;98744.78;5054102;28;20112;-60
2021/01/30 20:33:20;;;;;;;12.07;3.40;;;;;;;9.39;64.26;98717.56;5053905;28;20018;-60
2021/01/30 20:35:45;;;;;;;14.55;2.88;;;;;;;9.69;64.27;98755.19;5055967;28;20045;-61
2021/01/30 20:38:11;;;;;;;13.50;3.25;;;;;;;9.61;64.74;98738.50;5055409;28;20535;-62
2021/01/30 20:40:37;;;;;;;16.33;3.53;;;;;;;9.68;64.63;98743.50;5055742;28;20117;-60
2021/01/30 20:43:03;;;;;;;10.02;2.58;;;;;;;9.64;66.04;98749.88;5055576;28;20233;-61
2021/01/30 20:45:31;;;;;;;14.27;2.63;;;;;;;9.60;66.31;98745.06;5055425;28;20032;-60
2021/01/30 20:47:57;;;;;;;11.30;2.95;;;;;;;9.58;65.90;98739.16;5061447;28;20033;-60
2021/01/30 20:50:24;;;;;;;12.15;2.80;;;;;;;9.53;66.27;98731.09;5055303;28;20112;-61
2021/01/30 20:52:50;;;;;;;11.85;3.05;;;;;;;9.56;66.31;98738.66;5058919;28;20060;-60
2021/01/30 20:55:15;;;;;;;14.60;3.28;;;;;;;9.57;66.27;98734.81;5058888;28;20029;-60
2021/01/30 20:57:41;;;;;;;8.73;2.88;;;;;;;9.61;66.31;98733.06;5059042;28;20044;-60
2021/01/30 21:00:09;;;;;;;12.10;2.67;;;;;;;9.48;66.02;98695.06;5057640;28;20484;-61
2021/01/30 21:02:34;;;;;;;13.75;3.38;;;;;;;9.63;66.46;98718.34;5058223;28;20090;-61
2021/01/30 21:05:00;;;;;;;13.65;2.70;;;;;;;9.56;66.84;98725.03;5058651;28;20032;-60
2021/01/30 21:07:25;;;;;;;13.13;3.08;;;;;;;9.52;66.80;98707.72;5058634;28;20082;-60
2021/01/30 21:09:51;;;;;;;14.07;3.50;;;;;;;9.53;66.62;98703.09;5060982;28;20027;-61
2021/01/30 21:12:17;;;;;;;13.07;2.83;;;;;;;9.53;66.38;98712.06;5058810;28;20497;-61
2021/01/30 21:14:42;;;;;;;11.68;2.90;;;;;;;9.55;66.20;98703.56;5059064;28;20355;-60
2021/01/30 21:17:07;;;;;;;16.15;3.63;;;;;;;9.56;65.72;98697.00;5059200;28;20031;-62
2021/01/30 21:19:33;;;;;;;14.85;4.00;;;;;;;9.56;66.10;98697.00;5060204;28;20028;-63
2021/01/30 21:21:59;;;;;;;16.83;3.72;;;;;;;9.58;65.66;98703.78;5064269;28;20021;-60
2021/01/30 21:24:25;;;;;;;11.07;2.92;;;;;;;9.58;65.75;98706.50;5053941;28;20135;-59
2021/01/30 21:26:50;;;;;;;17.23;3.17;;;;;;;9.42;65.42;98678.09;5054824;28;20525;-61
2021/01/30 21:29:16;;;;;;;13.63;2.95;;;;;;;9.59;65.00;98697.19;5058218;28;20048;-61
2021/01/30 21:31:41;;;;;;;12.77;3.10;;;;;;;9.35;65.32;98655.94;5056791;28;20067;-59
2021/01/30 21:34:07;;;;;;;12.85;3.33;;;;;;;9.62;65.21;98690.34;5056148;28;20032;-60
2021/01/30 21:36:32;;;;;;;12.10;3.28;;;;;;;9.64;65.28;98679.91;5057559;28;20322;-63
2021/01/30 21:38:57;;;;;;;13.27;2.90;;;;;;;9.65;65.64;98689.69;5057760;28;20102;-60
2021/01/30 21:41:23;;;;;;;13.00;3.45;;;;;;;9.58;65.75;98675.75;5058900;28;20430;-62
2021/01/30 21:43:48;;;;;;;15.35;3.33;;;;;;;9.57;66.22;98683.13;5058541;28;20052;-62
2021/01/30 21:46:14;;;;;;;15.48;3.30;;;;;;;9.58;65.58;98670.28;5058242;28;20024;-61
2021/01/30 21:48:40;;;;;;;18.73;3.88;;;;;;;9.56;65.96;98680.69;5057524;28;20044;-60
2021/01/30 21:51:05;;;;;;;15.73;3.50;;;;;;;9.56;66.00;98665.19;5058815;28;20028;-63
2021/01/30 21:53:32;;;;;;;15.80;2.88;;;;;;;9.58;65.80;98664.84;5063809;28;20081;-62
2021/01/30 21:55:58;;;;;;;14.60;2.97;;;;;;;9.58;65.86;98670.28;5057849;28;20037;-60
2021/01/30 21:58:23;;;;;;;14.25;3.20;;;;;;;9.49;65.73;98653.13;5057855;28;20078;-61
2021/01/30 22:00:48;;;;;;;15.57;3.50;;;;;;;9.55;66.52;98666.28;5055485;28;20036;-60
2021/01/30 22:03:14;;;;;;;12.15;3.00;;;;;;;9.48;67.03;98652.34;5058287;28;20025;-60
2021/01/30 22:05:40;;;;;;;12.38;2.45;;;;;;;9.45;67.07;98642.06;5057995;28;20123;-60
2021/01/30 22:08:06;;;;;;;13.15;3.10;;;;;;;9.40;67.47;98656.63;5057920;28;20036;-61
2021/01/30 22:10:31;;;;;;;9.93;2.83;;;;;;;9.37;67.61;98648.28;5057595;28;20167;-63
2021/01/30 22:12:56;;;;;;;13.35;2.65;;;;;;;9.33;68.47;98650.03;5058159;28;20067;-60
2021/01/30 22:15:23;;;;;;;11.23;2.88;;;;;;;9.19;69.06;98640.03;5057643;28;20413;-60
2021/01/30 22:17:48;;;;;;;11.43;2.47;;;;;;;9.24;69.63;98639.91;5057325;28;20481;-63
2021/01/30 22:20:14;;;;;;;15.45;3.17;;;;;;;9.22;69.97;98639.41;5056844;28;20572;-59
2021/01/30 22:22:41;;;;;;;12.50;2.83;;;;;;;8.74;69.83;98585.75;5057224;28;20470;-60
2021/01/30 22:25:07;;;;;;;12.27;3.75;;;;;;;9.14;70.82;98640.19;5057725;28;20040;-61
2021/01/30 22:27:32;;;;;;;11.00;3.80;;;;;;;9.07;71.33;98629.75;5057693;28;20415;-61
2021/01/30 22:29:57;;;;;;;11.80;2.72;;;;;;;9.04;71.36;98627.66;5057483;28;20086;-60
2021/01/30 22:32:23;;;;;;;9.10;2.47;;;;;;;9.01;71.18;98622.06;5055810;28;20025;-60
2021/01/30 22:34:48;;;;;;;9.73;2.47;;;;;;;8.96;71.54;98622.97;5055744;28;20029;-60
2021/01/30 22:37:13;;;;;;;8.05;2.25;;;;;;;8.90;71.42;98616.03;5057954;28;20052;-60
2021/01/30 22:39:39;;;;;;;9.05;3.00;;;;;;;8.90;71.38;98625.03;5057391;28;20029;-60
2021/01/30 22:42:04;;;;;;;8.02;1.90;;;;;;;8.91;71.02;98606.78;5057972;28;20112;-61
2021/01/30 22:44:30;;;;;;;7.03;2.20;;;;;;;8.90;71.13;98616.88;5071058;28;20386;-60
2021/01/30 22:46:56;;;;;;;6.38;2.05;;;;;;;8.90;71.24;98622.31;5057042;28;20056;-60
2021/01/30 22:49:21;;;;;;;6.90;1.88;;;;;;;8.72;71.40;98607.78;5057439;28;20477;-60
2021/01/30 22:51:47;;;;;;;8.82;1.80;;;;;;;8.87;71.67;98633.00;5057845;28;20016;-63
2021/01/30 22:54:13;;;;;;;9.25;2.28;;;;;;;8.79;72.39;98623.66;5057193;28;20025;-61
2021/01/30 22:56:48;;;;;;;7.55;1.50;;;;;;;8.76;72.58;98633.25;5057459;28;20078;-60
2021/01/30 22:59:14;;;;;;;8.23;2.25;;;;;;;8.57;72.43;98608.16;5044274;28;20458;-60
2021/01/30 23:01:41;;;;;;;6.47;2.17;;;;;;;8.71;72.72;98633.38;5052453;28;20436;-60
2021/01/30 23:04:06;;;;;;;6.57;2.08;;;;;;;8.71;73.00;98638.81;5057395;28;20024;-60
2021/01/30 23:06:31;;;;;;;6.00;1.58;;;;;;;8.74;72.39;98630.03;5055863;28;21166;-63
2021/01/30 23:08:57;;;;;;;8.57;2.03;;;;;;;8.63;72.24;98607.75;5057108;28;20389;-60
2021/01/30 23:11:22;;;;;;;6.70;1.35;;;;;;;8.75;72.39;98630.84;5056366;28;20044;-59
2021/01/30 23:13:48;;;;;;;9.15;2.10;;;;;;;8.70;73.92;98622.81;5056991;28;20517;-63
2021/01/30 23:16:14;;;;;;;5.50;1.60;;;;;;;8.53;74.44;98602.56;5055976;28;20024;-61
2021/01/30 23:18:39;;;;;;;8.85;1.80;;;;;;;8.54;77.39;98630.53;5056788;28;20021;-60
2021/01/30 23:21:06;;;;;;;9.10;1.90;;;;;;;8.35;78.96;98610.53;5056993;28;20024;-60
2021/01/30 23:23:32;;;;;;;8.45;1.95;;;;;;;8.24;79.23;98603.75;5057028;28;20079;-62
2021/01/30 23:26:00;;;;;;;8.00;1.75;;;;;;;8.16;79.83;98599.06;5056969;28;20021;-61
2021/01/30 23:28:27;;;;;;;5.70;1.63;;;;;;;7.96;80.41;98579.41;5056406;28;20405;-60
2021/01/30 23:30:58;;;;;;;6.90;1.67;;;;;;;8.05;81.01;98579.47;5055091;28;20021;-60
2021/01/30 23:33:23;;;;;;;6.28;2.10;;;;;;;8.02;80.89;98567.31;5056060;28;20100;-60
2021/01/30 23:35:49;;;;;;;9.38;2.00;;;;;;;8.02;81.12;98570.03;5056767;28;20075;-60
2021/01/30 23:38:15;;;;;;;6.95;1.67;;;;;;;8.03;80.72;98563.47;5056550;28;20481;-60
2021/01/30 23:40:41;;;;;;;9.52;1.90;;;;;;;8.04;80.88;98556.94;5056766;28;20501;-61
2021/01/30 23:43:07;;;;;;;6.38;1.90;;;;;;;8.05;81.20;98560.47;5056794;28;20074;-60
2021/01/30 23:45:33;;;;;;;6.75;1.63;;;;;;;8.04;80.50;98548.81;5056033;28;20032;-62
2021/01/30 23:47:58;;;;;;;8.18;1.60;;;;;;;8.04;80.43;98542.59;5058645;28;20025;-60
2021/01/30 23:50:36;;;;;;;7.00;1.50;;;;;;;8.03;80.50;98539.06;5056375;28;20515;-60
2021/01/30 23:53:01;;;;;;;7.72;1.73;;;;;;;8.01;79.74;98535.88;5045868;28;20025;-63